sensor_id;sensor_type;location;lat;lon;timestamp;pressure;altitude;pressure_sealevel;temperature;humidity
62059;BME280;48017;51.064;7.014;2022-10-16T00:01:14;100428.19;;;13.09;100.00
62059;BME280;48017;51.064;7.014;2022-10-16T00:03:41;100431.13;;;13.06;100.00
62059;BME280;48017;51.064;7.014;2022-10-16T00:06:08;100434.19;;;13.11;100.00
62059;BME280;48017;51.064;7.014;2022-10-16T00:08:34;100437.53;;;13.13;100.00
62059;BME280;48017;51.064;7.014;2022-10-16T00:11:01;100439.66;;;13.19;100.00
62059;BME280;48017;51.064;7.014;2022-10-16T00:13:27;100435.88;;;13.12;100.00
62059;BME280;48017;51.064;7.014;2022-10-16T00:15:55;100443.75;;;13.04;100.00
62059;BME280;48017;51.064;7.014;2022-10-16T00:18:21;100451.78;;;12.94;100.00
62059;BME280;48017;51.064;7.014;2022-10-16T00:20:46;100453.41;;;13.05;100.00
62059;BME280;48017;51.064;7.014;2022-10-16T00:23:12;100451.84;;;13.12;100.00
62059;BME280;48017;51.064;7.014;2022-10-16T00:25:37;100467.72;;;13.04;100.00
62059;BME280;48017;51.064;7.014;2022-10-16T00:28:02;100460.81;;;13.11;100.00
62059;BME280;48017;51.064;7.014;2022-10-16T00:30:28;100464.75;;;13.07;100.00
62059;BME280;48017;51.064;7.014;2022-10-16T00:32:54;100455.97;;;12.96;100.00
62059;BME280;48017;51.064;7.014;2022-10-16T00:35:19;100447.03;;;13.15;100.00
62059;BME280;48017;51.064;7.014;2022-10-16T00:37:45;100454.56;;;13.30;100.00
62059;BME280;48017;51.064;7.014;2022-10-16T00:40:10;100445.88;;;13.27;100.00
62059;BME280;48017;51.064;7.014;2022-10-16T00:42:36;100449.81;;;13.23;100.00
62059;BME280;48017;51.064;7.014;2022-10-16T00:45:02;100454.19;;;13.15;100.00
62059;BME280;48017;51.064;7.014;2022-10-16T00:47:36;100456.38;;;13.02;100.00
62059;BME280;48017;51.064;7.014;2022-10-16T00:52:31;100449.03;;;13.13;100.00
62059;BME280;48017;51.064;7.014;2022-10-16T00:54:57;100450.38;;;13.00;100.00
62059;BME280;48017;51.064;7.014;2022-10-16T00:57:23;100451.78;;;12.94;100.00
62059;BME280;48017;51.064;7.014;2022-10-16T00:59:50;100437.13;;;12.90;100.00
62059;BME280;48017;51.064;7.014;2022-10-16T01:02:17;100435.72;;;12.86;100.00
62059;BME280;48017;51.064;7.014;2022-10-16T01:04:52;100445.34;;;12.69;100.00
62059;BME280;48017;51.064;7.014;2022-10-16T01:12:45;100463.97;;;12.69;100.00
62059;BME280;48017;51.064;7.014;2022-10-16T01:15:30;100456.69;;;12.71;100.00
62059;BME280;48017;51.064;7.014;2022-10-16T01:18:16;100450.78;;;12.77;100.00
62059;BME280;48017;51.064;7.014;2022-10-16T01:26:20;100469.13;;;12.71;100.00
62059;BME280;48017;51.064;7.014;2022-10-16T01:29:20;100464.66;;;12.71;100.00
62059;BME280;48017;51.064;7.014;2022-10-16T01:31:54;100467.63;;;12.68;100.00
62059;BME280;48017;51.064;7.014;2022-10-16T01:34:27;100463.13;;;12.68;100.00
62059;BME280;48017;51.064;7.014;2022-10-16T01:37:02;100453.59;;;12.66;100.00
62059;BME280;48017;51.064;7.014;2022-10-16T01:39:33;100445.63;;;12.66;100.00
62059;BME280;48017;51.064;7.014;2022-10-16T01:42:15;100453.91;;;12.63;100.00
62059;BME280;48017;51.064;7.014;2022-10-16T01:44:43;100466.41;;;12.53;100.00
62059;BME280;48017;51.064;7.014;2022-10-16T01:47:12;100467.84;;;12.47;100.00
62059;BME280;48017;51.064;7.014;2022-10-16T01:49:40;100464.88;;;12.50;100.00
62059;BME280;48017;51.064;7.014;2022-10-16T01:52:10;100458.13;;;12.56;100.00
62059;BME280;48017;51.064;7.014;2022-10-16T01:54:37;100463.44;;;12.56;100.00
62059;BME280;48017;51.064;7.014;2022-10-16T01:57:06;100460.28;;;12.43;100.00
62059;BME280;48017;51.064;7.014;2022-10-16T01:59:37;100471.59;;;12.45;100.00
62059;BME280;48017;51.064;7.014;2022-10-16T02:02:07;100467.81;;;12.57;100.00
62059;BME280;48017;51.064;7.014;2022-10-16T02:04:37;100473.28;;;12.46;100.00
62059;BME280;48017;51.064;7.014;2022-10-16T02:07:03;100478.19;;;12.50;100.00
62059;BME280;48017;51.064;7.014;2022-10-16T02:09:30;100471.38;;;12.65;100.00
62059;BME280;48017;51.064;7.014;2022-10-16T02:11:59;100468.47;;;12.68;100.00
62059;BME280;48017;51.064;7.014;2022-10-16T02:14:28;100468.22;;;12.52;100.00
62059;BME280;48017;51.064;7.014;2022-10-16T02:16:54;100464.88;;;12.50;100.00
62059;BME280;48017;51.064;7.014;2022-10-16T02:19:20;100476.50;;;12.49;100.00
62059;BME280;48017;51.064;7.014;2022-10-16T02:21:51;100482.78;;;12.58;100.00
62059;BME280;48017;51.064;7.014;2022-10-16T02:24:32;100484.88;;;12.54;100.00
62059;BME280;48017;51.064;7.014;2022-10-16T02:27:03;100482.88;;;12.66;100.00
62059;BME280;48017;51.064;7.014;2022-10-16T02:29:32;100481.84;;;12.77;100.00
62059;BME280;48017;51.064;7.014;2022-10-16T02:32:01;100486.25;;;12.68;100.00
62059;BME280;48017;51.064;7.014;2022-10-16T02:34:30;100484.56;;;12.67;100.00
62059;BME280;48017;51.064;7.014;2022-10-16T02:36:58;100498.72;;;12.67;100.00
62059;BME280;48017;51.064;7.014;2022-10-16T02:39:26;100492.63;;;12.75;100.00
62059;BME280;48017;51.064;7.014;2022-10-16T02:41:52;100496.44;;;12.73;100.00
62059;BME280;48017;51.064;7.014;2022-10-16T02:44:18;100493.09;;;12.71;100.00
62059;BME280;48017;51.064;7.014;2022-10-16T02:46:43;100495.91;;;12.69;100.00
62059;BME280;48017;51.064;7.014;2022-10-16T02:49:08;100484.41;;;12.68;100.00
62059;BME280;48017;51.064;7.014;2022-10-16T02:51:34;100488.59;;;12.71;100.00
62059;BME280;48017;51.064;7.014;2022-10-16T02:53:59;100474.84;;;12.76;100.00
62059;BME280;48017;51.064;7.014;2022-10-16T02:56:24;100479.75;;;12.80;100.00
62059;BME280;48017;51.064;7.014;2022-10-16T02:58:50;100481.25;;;12.83;100.00
62059;BME280;48017;51.064;7.014;2022-10-16T03:01:15;100497.25;;;12.73;100.00
62059;BME280;48017;51.064;7.014;2022-10-16T03:03:42;100493.03;;;12.80;100.00
62059;BME280;48017;51.064;7.014;2022-10-16T03:06:07;100487.75;;;12.71;100.00
62059;BME280;48017;51.064;7.014;2022-10-16T03:08:33;100491.06;;;12.82;100.00
62059;BME280;48017;51.064;7.014;2022-10-16T03:10:58;100496.28;;;12.74;100.00
62059;BME280;48017;51.064;7.014;2022-10-16T03:13:23;100491.63;;;12.76;100.00
62059;BME280;48017;51.064;7.014;2022-10-16T03:15:49;100482.03;;;12.65;100.00
62059;BME280;48017;51.064;7.014;2022-10-16T03:18:15;100476.16;;;12.62;100.00
62059;BME280;48017;51.064;7.014;2022-10-16T03:20:40;100475.19;;;12.63;100.00
62059;BME280;48017;51.064;7.014;2022-10-16T03:23:05;100463.31;;;12.57;100.00
62059;BME280;48017;51.064;7.014;2022-10-16T03:25:33;100459.84;;;12.57;100.00
62059;BME280;48017;51.064;7.014;2022-10-16T03:27:58;100469.81;;;12.73;100.00
62059;BME280;48017;51.064;7.014;2022-10-16T03:30:23;100472.13;;;12.58;100.00
62059;BME280;48017;51.064;7.014;2022-10-16T03:32:49;100474.00;;;12.48;100.00
62059;BME280;48017;51.064;7.014;2022-10-16T03:35:19;100476.91;;;12.54;100.00
62059;BME280;48017;51.064;7.014;2022-10-16T03:37:44;100470.06;;;12.52;100.00
62059;BME280;48017;51.064;7.014;2022-10-16T03:40:10;100485.03;;;12.53;100.00
62059;BME280;48017;51.064;7.014;2022-10-16T03:42:35;100486.44;;;12.57;100.00
62059;BME280;48017;51.064;7.014;2022-10-16T03:45:00;100480.31;;;12.47;100.00
62059;BME280;48017;51.064;7.014;2022-10-16T03:47:26;100483.91;;;12.46;100.00
62059;BME280;48017;51.064;7.014;2022-10-16T03:49:51;100485.06;;;12.43;100.00
62059;BME280;48017;51.064;7.014;2022-10-16T03:52:17;100481.69;;;12.41;100.00
62059;BME280;48017;51.064;7.014;2022-10-16T03:54:43;100482.25;;;12.45;100.00
62059;BME280;48017;51.064;7.014;2022-10-16T03:57:08;100495.97;;;12.40;100.00
62059;BME280;48017;51.064;7.014;2022-10-16T03:59:33;100501.13;;;12.51;100.00
62059;BME280;48017;51.064;7.014;2022-10-16T04:01:59;100502.81;;;12.52;100.00
62059;BME280;48017;51.064;7.014;2022-10-16T04:04:24;100510.25;;;12.49;100.00
62059;BME280;48017;51.064;7.014;2022-10-16T04:06:50;100518.22;;;12.49;100.00
62059;BME280;48017;51.064;7.014;2022-10-16T04:09:16;100511.06;;;12.59;100.00
62059;BME280;48017;51.064;7.014;2022-10-16T04:11:41;100514.28;;;12.53;100.00
62059;BME280;48017;51.064;7.014;2022-10-16T04:14:06;100520.88;;;12.49;100.00
62059;BME280;48017;51.064;7.014;2022-10-16T04:16:32;100529.09;;;12.55;100.00
62059;BME280;48017;51.064;7.014;2022-10-16T04:18:57;100512.31;;;12.45;100.00
62059;BME280;48017;51.064;7.014;2022-10-16T04:21:23;100515.13;;;12.44;100.00
62059;BME280;48017;51.064;7.014;2022-10-16T04:23:48;100523.25;;;12.52;100.00
62059;BME280;48017;51.064;7.014;2022-10-16T04:26:14;100522.56;;;12.50;100.00
62059;BME280;48017;51.064;7.014;2022-10-16T04:28:40;100520.88;;;12.49;100.00
62059;BME280;48017;51.064;7.014;2022-10-16T04:31:06;100535.69;;;12.51;100.00
62059;BME280;48017;51.064;7.014;2022-10-16T04:33:31;100543.13;;;12.48;100.00
62059;BME280;48017;51.064;7.014;2022-10-16T04:36:01;100539.72;;;12.55;100.00
62059;BME280;48017;51.064;7.014;2022-10-16T04:38:27;100535.16;;;12.48;100.00
62059;BME280;48017;51.064;7.014;2022-10-16T04:40:52;100533.59;;;12.45;100.00
62059;BME280;48017;51.064;7.014;2022-10-16T04:43:18;100526.47;;;12.46;100.00
62059;BME280;48017;51.064;7.014;2022-10-16T04:45:44;100529.28;;;12.44;100.00
62059;BME280;48017;51.064;7.014;2022-10-16T04:48:09;100531.22;;;12.42;100.00
62059;BME280;48017;51.064;7.014;2022-10-16T04:50:34;100537.13;;;12.36;100.00
62059;BME280;48017;51.064;7.014;2022-10-16T04:53:00;100533.91;;;12.32;100.00
62059;BME280;48017;51.064;7.014;2022-10-16T04:55:25;100535.16;;;12.48;100.00
62059;BME280;48017;51.064;7.014;2022-10-16T04:57:50;100543.69;;;12.42;100.00
62059;BME280;48017;51.064;7.014;2022-10-16T05:00:16;100557.53;;;12.45;100.00
62059;BME280;48017;51.064;7.014;2022-10-16T05:02:41;100553.63;;;12.39;100.00
62059;BME280;48017;51.064;7.014;2022-10-16T05:05:07;100550.16;;;12.39;100.00
62059;BME280;48017;51.064;7.014;2022-10-16T05:07:32;100552.22;;;12.35;100.00
62059;BME280;48017;51.064;7.014;2022-10-16T05:09:57;100552.38;;;12.34;100.00
62059;BME280;48017;51.064;7.014;2022-10-16T05:12:23;100562.88;;;12.35;100.00
62059;BME280;48017;51.064;7.014;2022-10-16T05:14:48;100567.78;;;12.40;100.00
62059;BME280;48017;51.064;7.014;2022-10-16T05:17:13;100563.97;;;12.43;100.00
62059;BME280;48017;51.064;7.014;2022-10-16T05:19:39;100565.97;;;12.31;100.00
62059;BME280;48017;51.064;7.014;2022-10-16T05:22:04;100570.84;;;12.35;100.00
62059;BME280;48017;51.064;7.014;2022-10-16T05:24:30;100577.56;;;12.30;100.00
62059;BME280;48017;51.064;7.014;2022-10-16T05:26:55;100582.75;;;12.41;100.00
62059;BME280;48017;51.064;7.014;2022-10-16T05:29:20;100584.28;;;12.34;100.00
62059;BME280;48017;51.064;7.014;2022-10-16T05:31:46;100575.31;;;12.35;100.00
62059;BME280;48017;51.064;7.014;2022-10-16T05:34:11;100586.25;;;12.32;100.00
62059;BME280;48017;51.064;7.014;2022-10-16T05:36:37;100589.44;;;12.35;100.00
62059;BME280;48017;51.064;7.014;2022-10-16T05:39:02;100592.81;;;12.37;100.00
62059;BME280;48017;51.064;7.014;2022-10-16T05:41:28;100591.16;;;12.27;100.00
62059;BME280;48017;51.064;7.014;2022-10-16T05:43:53;100587.66;;;12.26;100.00
62059;BME280;48017;51.064;7.014;2022-10-16T05:46:18;100599.81;;;12.29;100.00
62059;BME280;48017;51.064;7.014;2022-10-16T05:48:44;100605.97;;;12.29;100.00
62059;BME280;48017;51.064;7.014;2022-10-16T05:51:12;100594.91;;;12.24;100.00
62059;BME280;48017;51.064;7.014;2022-10-16T05:53:39;100603.72;;;12.34;100.00
62059;BME280;48017;51.064;7.014;2022-10-16T05:56:06;100603.72;;;12.34;100.00
62059;BME280;48017;51.064;7.014;2022-10-16T05:58:33;100612.00;;;12.31;100.00
62059;BME280;48017;51.064;7.014;2022-10-16T06:01:05;100617.75;;;12.27;100.00
62059;BME280;48017;51.064;7.014;2022-10-16T06:03:32;100624.16;;;12.34;100.00
62059;BME280;48017;51.064;7.014;2022-10-16T06:05:57;100623.59;;;12.40;100.00
62059;BME280;48017;51.064;7.014;2022-10-16T06:08:23;100625.56;;;12.48;100.00
62059;BME280;48017;51.064;7.014;2022-10-16T06:10:49;100628.34;;;12.46;100.00
62059;BME280;48017;51.064;7.014;2022-10-16T06:13:15;100632.00;;;12.35;100.00
62059;BME280;48017;51.064;7.014;2022-10-16T06:15:41;100645.16;;;12.27;100.00
62059;BME280;48017;51.064;7.014;2022-10-16T06:18:08;100645.56;;;12.23;100.00
62059;BME280;48017;51.064;7.014;2022-10-16T06:20:34;100652.41;;;12.25;100.00
62059;BME280;48017;51.064;7.014;2022-10-16T06:22:59;100651.56;;;12.25;100.00
62059;BME280;48017;51.064;7.014;2022-10-16T06:25:24;100644.44;;;12.35;100.00
62059;BME280;48017;51.064;7.014;2022-10-16T06:27:50;100642.06;;;12.42;100.00
62059;BME280;48017;51.064;7.014;2022-10-16T06:30:15;100653.53;;;12.42;100.00
62059;BME280;48017;51.064;7.014;2022-10-16T06:32:40;100643.91;;;12.41;100.00
62059;BME280;48017;51.064;7.014;2022-10-16T06:35:06;100651.88;;;12.41;100.00
62059;BME280;48017;51.064;7.014;2022-10-16T06:37:31;100649.34;;;12.39;100.00
62059;BME280;48017;51.064;7.014;2022-10-16T06:39:57;100653.69;;;12.50;100.00
62059;BME280;48017;51.064;7.014;2022-10-16T06:42:22;100659.28;;;12.57;100.00
62059;BME280;48017;51.064;7.014;2022-10-16T06:44:48;100673.97;;;12.61;100.00
62059;BME280;48017;51.064;7.014;2022-10-16T06:47:13;100677.47;;;12.71;100.00
62059;BME280;48017;51.064;7.014;2022-10-16T06:49:38;100682.38;;;12.56;100.00
62059;BME280;48017;51.064;7.014;2022-10-16T06:52:04;100687.28;;;12.61;100.00
62059;BME280;48017;51.064;7.014;2022-10-16T06:54:30;100696.38;;;12.68;100.00
62059;BME280;48017;51.064;7.014;2022-10-16T06:56:55;100702.81;;;12.65;100.00
62059;BME280;48017;51.064;7.014;2022-10-16T06:59:21;100706.28;;;12.66;100.00
62059;BME280;48017;51.064;7.014;2022-10-16T07:01:47;100695.81;;;12.74;100.00
62059;BME280;48017;51.064;7.014;2022-10-16T07:04:12;100705.75;;;12.62;100.00
62059;BME280;48017;51.064;7.014;2022-10-16T07:06:37;100703.22;;;12.71;100.00
62059;BME280;48017;51.064;7.014;2022-10-16T07:09:05;100714.72;;;12.71;100.00
62059;BME280;48017;51.064;7.014;2022-10-16T07:11:35;100724.06;;;12.85;100.00
62059;BME280;48017;51.064;7.014;2022-10-16T07:14:01;100725.91;;;12.84;100.00
62059;BME280;48017;51.064;7.014;2022-10-16T07:16:28;100719.44;;;12.96;100.00
62059;BME280;48017;51.064;7.014;2022-10-16T07:18:56;100730.50;;;13.02;100.00
62059;BME280;48017;51.064;7.014;2022-10-16T07:21:33;100740.31;;;13.11;100.00
62059;BME280;48017;51.064;7.014;2022-10-16T07:24:02;100753.03;;;13.26;100.00
62059;BME280;48017;51.064;7.014;2022-10-16T07:26:30;100747.13;;;13.42;100.00
62059;BME280;48017;51.064;7.014;2022-10-16T07:28:56;100750.22;;;13.75;100.00
62059;BME280;48017;51.064;7.014;2022-10-16T07:31:24;100766.53;;;13.72;100.00
62059;BME280;48017;51.064;7.014;2022-10-16T07:33:50;100761.75;;;13.66;100.00
62059;BME280;48017;51.064;7.014;2022-10-16T07:36:17;100768.34;;;13.71;100.00
62059;BME280;48017;51.064;7.014;2022-10-16T07:38:44;100772.16;;;13.96;100.00
62059;BME280;48017;51.064;7.014;2022-10-16T07:41:11;100771.13;;;14.07;100.00
62059;BME280;48017;51.064;7.014;2022-10-16T07:43:38;100773.56;;;14.00;100.00
62059;BME280;48017;51.064;7.014;2022-10-16T07:46:04;100772.63;;;14.82;100.00
62059;BME280;48017;51.064;7.014;2022-10-16T07:48:31;100777.88;;;14.56;100.00
62059;BME280;48017;51.064;7.014;2022-10-16T07:51:01;100781.44;;;14.20;100.00
62059;BME280;48017;51.064;7.014;2022-10-16T07:53:28;100790.16;;;14.67;100.00
62059;BME280;48017;51.064;7.014;2022-10-16T07:56:00;100787.25;;;14.96;100.00
62059;BME280;48017;51.064;7.014;2022-10-16T07:58:27;100794.13;;;16.28;100.00
62059;BME280;48017;51.064;7.014;2022-10-16T08:00:52;100802.22;;;16.61;96.62
62059;BME280;48017;51.064;7.014;2022-10-16T08:03:18;100802.44;;;16.17;98.44
62059;BME280;48017;51.064;7.014;2022-10-16T08:05:43;100820.00;;;16.70;95.28
62059;BME280;48017;51.064;7.014;2022-10-16T08:08:13;100813.41;;;18.11;86.41
62059;BME280;48017;51.064;7.014;2022-10-16T08:10:39;100820.06;;;18.54;82.54
62059;BME280;48017;51.064;7.014;2022-10-16T08:13:04;100817.25;;;18.48;80.77
62059;BME280;48017;51.064;7.014;2022-10-16T08:15:29;100818.91;;;18.80;80.12
62059;BME280;48017;51.064;7.014;2022-10-16T08:18:00;100813.84;;;18.54;79.94
62059;BME280;48017;51.064;7.014;2022-10-16T08:20:26;100824.81;;;19.44;75.22
62059;BME280;48017;51.064;7.014;2022-10-16T08:22:52;100826.84;;;19.65;73.53
62059;BME280;48017;51.064;7.014;2022-10-16T08:25:20;100834.19;;;20.45;69.57
62059;BME280;48017;51.064;7.014;2022-10-16T08:27:45;100827.06;;;19.55;72.79
62059;BME280;48017;51.064;7.014;2022-10-16T08:30:11;100831.75;;;19.91;70.23
62059;BME280;48017;51.064;7.014;2022-10-16T08:32:36;100836.41;;;18.98;73.86
62059;BME280;48017;51.064;7.014;2022-10-16T08:35:02;100842.16;;;19.79;70.72
62059;BME280;48017;51.064;7.014;2022-10-16T08:37:31;100840.13;;;19.96;67.54
62059;BME280;48017;51.064;7.014;2022-10-16T08:39:57;100852.63;;;19.51;70.56
62059;BME280;48017;51.064;7.014;2022-10-16T08:50:26;100866.66;;;19.84;66.28
62059;BME280;48017;51.064;7.014;2022-10-16T08:52:54;100865.47;;;20.46;63.45
62059;BME280;48017;51.064;7.014;2022-10-16T08:55:43;100873.41;;;20.68;61.50
62059;BME280;48017;51.064;7.014;2022-10-16T08:58:15;100879.22;;;20.87;62.00
62059;BME280;48017;51.064;7.014;2022-10-16T09:00:41;100885.47;;;21.09;61.04
62059;BME280;48017;51.064;7.014;2022-10-16T09:03:17;100890.91;;;20.58;62.80
62059;BME280;48017;51.064;7.014;2022-10-16T09:05:53;100886.88;;;21.05;60.26
62059;BME280;48017;51.064;7.014;2022-10-16T09:11:16;100884.84;;;21.07;60.40
62059;BME280;48017;51.064;7.014;2022-10-16T09:13:54;100888.09;;;21.23;59.77
62059;BME280;48017;51.064;7.014;2022-10-16T09:16:40;100878.34;;;21.01;59.38
62059;BME280;48017;51.064;7.014;2022-10-16T09:21:45;100890.88;;;21.51;57.27
62059;BME280;48017;51.064;7.014;2022-10-16T09:24:18;100878.41;;;20.71;59.96
62059;BME280;48017;51.064;7.014;2022-10-16T09:26:45;100874.19;;;20.18;59.39
62059;BME280;48017;51.064;7.014;2022-10-16T09:29:15;100875.25;;;19.79;61.97
62059;BME280;48017;51.064;7.014;2022-10-16T09:31:41;100873.81;;;20.21;60.56
62059;BME280;48017;51.064;7.014;2022-10-16T09:34:27;100876.41;;;20.14;61.03
62059;BME280;48017;51.064;7.014;2022-10-16T09:36:57;100883.00;;;20.12;61.22
62059;BME280;48017;51.064;7.014;2022-10-16T09:39:24;100883.47;;;20.16;61.09
62059;BME280;48017;51.064;7.014;2022-10-16T09:41:49;100891.06;;;19.60;61.91
62059;BME280;48017;51.064;7.014;2022-10-16T09:44:24;100883.00;;;19.37;62.67
62059;BME280;48017;51.064;7.014;2022-10-16T09:47:20;100886.53;;;19.60;62.95
62059;BME280;48017;51.064;7.014;2022-10-16T09:50:00;100887.09;;;19.55;63.40
62059;BME280;48017;51.064;7.014;2022-10-16T09:52:28;100888.38;;;20.12;61.87
62059;BME280;48017;51.064;7.014;2022-10-16T09:54:55;100882.16;;;20.41;60.73
62059;BME280;48017;51.064;7.014;2022-10-16T09:57:21;100880.56;;;19.88;61.36
62059;BME280;48017;51.064;7.014;2022-10-16T09:59:49;100884.88;;;19.59;62.27
62059;BME280;48017;51.064;7.014;2022-10-16T10:02:14;100892.34;;;19.87;60.73
62059;BME280;48017;51.064;7.014;2022-10-16T10:04:52;100897.13;;;20.14;60.17
62059;BME280;48017;51.064;7.014;2022-10-16T10:07:26;100896.16;;;19.54;61.73
62059;BME280;48017;51.064;7.014;2022-10-16T10:09:52;100896.44;;;19.82;59.53
62059;BME280;48017;51.064;7.014;2022-10-16T10:12:29;100891.91;;;19.98;59.75
62059;BME280;48017;51.064;7.014;2022-10-16T10:14:58;100892.81;;;20.79;58.65
62059;BME280;48017;51.064;7.014;2022-10-16T10:17:29;100887.63;;;20.77;58.54
62059;BME280;48017;51.064;7.014;2022-10-16T10:19:57;100894.53;;;20.35;59.64
62059;BME280;48017;51.064;7.014;2022-10-16T10:28:28;100878.34;;;19.91;60.31
62059;BME280;48017;51.064;7.014;2022-10-16T10:35:46;100888.63;;;19.27;62.63
62059;BME280;48017;51.064;7.014;2022-10-16T10:46:40;100904.88;;;19.34;64.21
62059;BME280;48017;51.064;7.014;2022-10-16T10:55:02;100900.25;;;19.19;62.71
62059;BME280;48017;51.064;7.014;2022-10-16T10:57:43;100900.44;;;19.41;62.36
62059;BME280;48017;51.064;7.014;2022-10-16T11:00:19;100899.72;;;20.52;59.44
62059;BME280;48017;51.064;7.014;2022-10-16T11:11:01;100881.97;;;19.83;59.32
62059;BME280;48017;51.064;7.014;2022-10-16T11:16:03;100897.44;;;19.81;59.11
62059;BME280;48017;51.064;7.014;2022-10-16T11:21:07;100895.69;;;20.33;58.30
62059;BME280;48017;51.064;7.014;2022-10-16T11:26:16;100901.50;;;20.95;55.96
62059;BME280;48017;51.064;7.014;2022-10-16T11:28:53;100901.09;;;20.18;57.90
62059;BME280;48017;51.064;7.014;2022-10-16T11:31:44;100908.31;;;21.13;54.44
62059;BME280;48017;51.064;7.014;2022-10-16T11:34:36;100903.91;;;20.54;54.96
62059;BME280;48017;51.064;7.014;2022-10-16T11:39:42;100904.47;;;21.00;53.87
62059;BME280;48017;51.064;7.014;2022-10-16T11:42:33;100913.81;;;22.11;52.60
62059;BME280;48017;51.064;7.014;2022-10-16T11:45:10;100901.06;;;21.28;52.60
62059;BME280;48017;51.064;7.014;2022-10-16T11:47:45;100914.78;;;21.33;53.54
62059;BME280;48017;51.064;7.014;2022-10-16T11:53:18;100910.41;;;21.32;54.37
62059;BME280;48017;51.064;7.014;2022-10-16T11:55:49;100914.44;;;21.64;52.84
62059;BME280;48017;51.064;7.014;2022-10-16T11:58:24;100913.06;;;21.75;52.72
62059;BME280;48017;51.064;7.014;2022-10-16T12:01:26;100920.25;;;21.89;50.87
62059;BME280;48017;51.064;7.014;2022-10-16T12:04:15;100924.44;;;21.92;49.08
62059;BME280;48017;51.064;7.014;2022-10-16T12:06:49;100915.56;;;21.98;51.13
62059;BME280;48017;51.064;7.014;2022-10-16T12:09:21;100928.84;;;21.28;52.35
62059;BME280;48017;51.064;7.014;2022-10-16T12:11:47;100917.75;;;22.09;50.36
62059;BME280;48017;51.064;7.014;2022-10-16T12:16:52;100929.09;;;20.47;53.56
62059;BME280;48017;51.064;7.014;2022-10-16T12:19:20;100928.09;;;20.10;55.23
62059;BME280;48017;51.064;7.014;2022-10-16T12:21:46;100935.13;;;20.49;54.47
62059;BME280;48017;51.064;7.014;2022-10-16T12:24:34;100925.88;;;20.28;55.55
62059;BME280;48017;51.064;7.014;2022-10-16T12:27:01;100924.22;;;20.42;56.34
62059;BME280;48017;51.064;7.014;2022-10-16T12:29:41;100928.22;;;20.76;55.08
62059;BME280;48017;51.064;7.014;2022-10-16T12:32:29;100928.31;;;20.53;55.67
62059;BME280;48017;51.064;7.014;2022-10-16T12:34:56;100930.53;;;20.79;55.02
62059;BME280;48017;51.064;7.014;2022-10-16T12:37:35;100917.53;;;21.04;54.70
62059;BME280;48017;51.064;7.014;2022-10-16T12:40:25;100916.09;;;21.37;53.31
62059;BME280;48017;51.064;7.014;2022-10-16T12:42:51;100917.50;;;21.82;51.10
62059;BME280;48017;51.064;7.014;2022-10-16T12:45:33;100906.84;;;22.71;49.78
62059;BME280;48017;51.064;7.014;2022-10-16T12:48:01;100898.38;;;22.81;49.81
62059;BME280;48017;51.064;7.014;2022-10-16T12:52:52;100905.13;;;23.05;49.09
62059;BME280;48017;51.064;7.014;2022-10-16T12:55:20;100910.75;;;23.17;47.66
62059;BME280;48017;51.064;7.014;2022-10-16T12:58:14;100912.31;;;24.70;45.14
62059;BME280;48017;51.064;7.014;2022-10-16T13:03:44;100913.44;;;24.56;43.67
62059;BME280;48017;51.064;7.014;2022-10-16T13:06:19;100919.94;;;22.05;48.60
62059;BME280;48017;51.064;7.014;2022-10-16T13:09:02;100910.81;;;22.28;48.84
62059;BME280;48017;51.064;7.014;2022-10-16T13:22:51;100907.47;;;22.74;47.63
62059;BME280;48017;51.064;7.014;2022-10-16T13:30:29;100918.75;;;21.59;50.22
62059;BME280;48017;51.064;7.014;2022-10-16T13:33:04;100916.69;;;22.38;49.33
62059;BME280;48017;51.064;7.014;2022-10-16T13:35:34;100914.91;;;21.96;48.50
62059;BME280;48017;51.064;7.014;2022-10-16T13:38:21;100910.84;;;22.06;48.46
62059;BME280;48017;51.064;7.014;2022-10-16T13:43:28;100913.78;;;22.46;47.06
62059;BME280;48017;51.064;7.014;2022-10-16T13:46:01;100920.22;;;22.45;47.38
62059;BME280;48017;51.064;7.014;2022-10-16T13:48:28;100927.19;;;22.67;47.06
62059;BME280;48017;51.064;7.014;2022-10-16T13:51:03;100914.91;;;22.65;46.97
62059;BME280;48017;51.064;7.014;2022-10-16T13:53:31;100918.75;;;21.80;49.15
62059;BME280;48017;51.064;7.014;2022-10-16T13:55:57;100919.84;;;22.13;48.76
62059;BME280;48017;51.064;7.014;2022-10-16T13:58:22;100916.28;;;21.21;50.97
62059;BME280;48017;51.064;7.014;2022-10-16T14:01:04;100914.31;;;20.57;52.96
62059;BME280;48017;51.064;7.014;2022-10-16T14:03:33;100907.97;;;20.35;53.49
62059;BME280;48017;51.064;7.014;2022-10-16T14:06:03;100913.69;;;20.91;53.33
62059;BME280;48017;51.064;7.014;2022-10-16T14:08:30;100915.69;;;20.38;54.43
62059;BME280;48017;51.064;7.014;2022-10-16T14:10:57;100919.59;;;21.02;52.67
62059;BME280;48017;51.064;7.014;2022-10-16T14:13:31;100910.28;;;21.40;51.63
62059;BME280;48017;51.064;7.014;2022-10-16T14:16:04;100917.69;;;21.32;53.13
62059;BME280;48017;51.064;7.014;2022-10-16T14:18:30;100923.94;;;20.22;54.83
62059;BME280;48017;51.064;7.014;2022-10-16T14:21:03;100922.63;;;20.33;54.81
62059;BME280;48017;51.064;7.014;2022-10-16T14:23:31;100920.03;;;20.10;56.28
62059;BME280;48017;51.064;7.014;2022-10-16T14:26:13;100934.38;;;20.55;56.27
62059;BME280;48017;51.064;7.014;2022-10-16T14:28:40;100925.06;;;20.28;56.20
62059;BME280;48017;51.064;7.014;2022-10-16T14:33:49;100918.31;;;20.47;57.35
62059;BME280;48017;51.064;7.014;2022-10-16T14:36:16;100916.06;;;20.50;57.87